航空気象通報

ウインドサーファーのための航空気象通報による風予報です。

6/9-6/11の航空気象通報

2017年06月09日 22時31分35秒 | TAF
羽田空港
TAF RJTT 091108Z 0912/1018 16008KT 8000 FEW010 BKN020
BECMG 0913/0915 05004KT
TEMPO 0913/0916 -TSRA FEW010 BKN020 FEW020CB
BECMG 0920/0922 18016KT
TEMPO 1000/1006 20024G34KT
BECMG 1009/1012 01012KT
日本時間9日21-22時:160度から8ノットの風
22-24時:風が変化
10日00-05時:050度から4ノットの風
05-07時:風が変化
07-18時:180度から16ノットの風
但し、200度から24ノット、突風34ノット
18-21時:風が変化
21時-11日03時:010度から12ノットの風

但し、9日22時-10日01時の間:ときどき

静岡空港
TAF RJNS 091108Z 0912/1018 26006KT 9999 FEW020
BECMG 1003/1006 23016KT
TEMPO 1003/1009 23020G32KT
日本時間9日21時-10日12時:260度から6ノットの風
12-15時:風が変化
15時-11日03時:230度から16ノットの風
但し、10日12-15時の間:ときどき230度から20ノット、突風32ノット


福岡空港
TAF RJFF 091110Z 0912/1018 27006KT 9999 FEW040
BECMG 0912/0914 15005KT
BECMG 1000/1003 30011KT
BECMG 1009/1012 15006KT
日本時間9日21時:270度から6ノットの風
21-23時:風が変化
23時-10日09時:150度から5ノットの風
09-12時:風が変化
12-18時:300度から11ノットの風
18-21時:風が変化
21時-11日03時:150度から6ノットの風


那覇空港
TAF ROAH 091106Z 0912/1018 20010KT 9999 FEW015 BKN025
日本時間9日21時-11日03時:200度から10ノットの風


石垣空港
TAF ROIG 091109Z 0912/1018 20006KT 9999 FEW015
日本時間9日21時-11日03時:200度から6ノットの風


マウイのカフルイ空港
PHOG 091126Z 0912/1012 05011KT P6SM SCT025 SCT050
TEMPO 0912/0916 BKN025
FM092200 05016G24KT P6SM SCT025 SCT050
FM100600 04009KT P6SM VCSH FEW025 SCT045 AMD LTD TO VIS AND WIND TIL 091600
ハワイ時間9日02-12時:050度から11ノットの風
12-20時:050度から16ノット、突風24ノット
20時-10日02時:040度から9ノットの風

但し、9日02-06時の間:ときどき

サイパン空港
TAF PGSN 091121Z 0912/1012 15008KT P6SM FEW022 SCT120
マリアナ時間9日22時-10日22時:150度から8ノットの風

ジャンル:
お天気
コメント   この記事についてブログを書く
この記事をはてなブックマークに追加
« 6/8-6/10の航空気象通報 | トップ | 6/10-6/12の航空気象通報 »
最近の画像もっと見る

コメントを投稿

ブログ作成者から承認されるまでコメントは反映されません。

TAF」カテゴリの最新記事